首页
METAR-TAF:

METAR-TAF

机场 :

McCook, 內布拉斯加州, 美国

纬度: 40-12-11N, 经度: 100-35-18W, 海拔: 786米

当前天气观测

该预报发布于15分钟前的09:53 UTC
风速6节,风向东转东北
温度 -1°C
湿度 64%
气压 1023 hPa
能見度: 16.1公里
阴天层高于7500英尺

METAR: KMCK 220953Z AUTO 06006KT 10SM OVC075 M01/M07 A3021 RMK AO2 SLP251 T10111072

时间: 04:08 (10:08 UTC)

预报

该预报发布于4小时和31分钟前的05:37 UTC
预报有效从22日的 06点(UTC)到 23日的 06点(UTC)
风速5节,风向多变
能見度: 10公里
阴天层高于9000英尺
从 22日的 1200点(UTC)
风速3节,风向多变
能見度: 10公里
阴天层高于4000英尺
从 22日的 1800点(UTC)
风速5节,风向多变
能見度: 9.7公里
阴天层高于2500英尺
小雪
从 23日的 0100点(UTC)
风速7节,风向南转西南
能見度: 10公里
散云层高于2500英尺

TAF: KMCK 220537Z 2206/2306 VRB05KT P6SM OVC090 FM221200 VRB03KT P6SM OVC040 FM221800 VRB05KT 6SM -SN OVC025 FM230100 20007KT P6SM SCT025

超过4000个机场的气象观测和天气预报(METAR&TAF报告)。

可查询的气象台以黄色和红色小点在地图上表示。

将鼠标移到小点上方,可查看气象台名称。

然后点击查看天气观测和预报。

如需切换地图:点击带黑十字的绿色按钮放大地图;点击带横线的绿色按钮缩小地图;或者点击绿色箭头查看邻近地区的地图。


METAR-TAF: